sensor_id;sensor_type;location;lat;lon;timestamp;pressure;altitude;pressure_sealevel;temperature;humidity
26775;BME280;14362;51.902;7.626;2023-01-15T00:01:53;99221.66;;;6.93;100.00
26775;BME280;14362;51.902;7.626;2023-01-15T00:05:54;99231.16;;;6.83;100.00
26775;BME280;14362;51.902;7.626;2023-01-15T00:09:56;99235.19;;;6.65;100.00
26775;BME280;14362;51.902;7.626;2023-01-15T00:13:58;99228.22;;;6.59;100.00
26775;BME280;14362;51.902;7.626;2023-01-15T00:18:01;99219.28;;;6.54;100.00
26775;BME280;14362;51.902;7.626;2023-01-15T00:22:02;99217.53;;;6.49;100.00
26775;BME280;14362;51.902;7.626;2023-01-15T00:26:04;99208.94;;;6.42;100.00
26775;BME280;14362;51.902;7.626;2023-01-15T00:30:23;99194.63;;;6.40;100.00
26775;BME280;14362;51.902;7.626;2023-01-15T00:34:26;99197.25;;;6.37;100.00
26775;BME280;14362;51.902;7.626;2023-01-15T00:38:29;99210.13;;;6.33;100.00
26775;BME280;14362;51.902;7.626;2023-01-15T00:42:30;99201.34;;;6.31;100.00
26775;BME280;14362;51.902;7.626;2023-01-15T00:46:31;99199.59;;;6.26;100.00
26775;BME280;14362;51.902;7.626;2023-01-15T00:50:34;99209.69;;;6.22;100.00
26775;BME280;14362;51.902;7.626;2023-01-15T00:54:35;99227.78;;;6.20;100.00
26775;BME280;14362;51.902;7.626;2023-01-15T00:58:37;99205.97;;;6.18;100.00
26775;BME280;14362;51.902;7.626;2023-01-15T01:02:38;99208.91;;;6.22;100.00
26775;BME280;14362;51.902;7.626;2023-01-15T01:06:41;99202.19;;;6.23;100.00
26775;BME280;14362;51.902;7.626;2023-01-15T01:10:43;99212.59;;;6.26;100.00
26775;BME280;14362;51.902;7.626;2023-01-15T01:14:44;99208.91;;;6.22;100.00
26775;BME280;14362;51.902;7.626;2023-01-15T01:18:45;99214.25;;;6.18;100.00
26775;BME280;14362;51.902;7.626;2023-01-15T01:22:48;99204.97;;;6.23;100.00
26775;BME280;14362;51.902;7.626;2023-01-15T01:26:50;99215.72;;;6.24;100.00
26775;BME280;14362;51.902;7.626;2023-01-15T01:30:51;99224.97;;;6.28;100.00
26775;BME280;14362;51.902;7.626;2023-01-15T01:34:53;99231.81;;;6.22;100.00
26775;BME280;14362;51.902;7.626;2023-01-15T01:38:55;99244.16;;;6.25;100.00
26775;BME280;14362;51.902;7.626;2023-01-15T01:42:57;99241.56;;;6.28;100.00
26775;BME280;14362;51.902;7.626;2023-01-15T01:46:59;99246.09;;;6.33;100.00
26775;BME280;14362;51.902;7.626;2023-01-15T01:51:01;99248.56;;;6.26;100.00
26775;BME280;14362;51.902;7.626;2023-01-15T01:55:07;99252.94;;;6.27;100.00
26775;BME280;14362;51.902;7.626;2023-01-15T01:59:09;99256.81;;;6.34;100.00
26775;BME280;14362;51.902;7.626;2023-01-15T02:03:11;99241.56;;;6.28;100.00
26775;BME280;14362;51.902;7.626;2023-01-15T02:07:13;99236.84;;;6.29;100.00
26775;BME280;14362;51.902;7.626;2023-01-15T02:11:19;99237.81;;;6.33;100.00
26775;BME280;14362;51.902;7.626;2023-01-15T02:15:26;99235.38;;;6.31;100.00
26775;BME280;14362;51.902;7.626;2023-01-15T02:19:39;99247.59;;;6.30;100.00
26775;BME280;14362;51.902;7.626;2023-01-15T02:24:06;99237.19;;;6.27;100.00
26775;BME280;14362;51.902;7.626;2023-01-15T02:28:15;99234.19;;;6.32;100.00
26775;BME280;14362;51.902;7.626;2023-01-15T02:32:28;99242.97;;;6.34;100.00
26775;BME280;14362;51.902;7.626;2023-01-15T02:36:34;99236.19;;;6.32;100.00
26775;BME280;14362;51.902;7.626;2023-01-15T02:40:38;99229.97;;;6.35;100.00
26775;BME280;14362;51.902;7.626;2023-01-15T02:44:45;99220.53;;;6.36;100.00
26775;BME280;14362;51.902;7.626;2023-01-15T02:48:51;99216.63;;;6.37;100.00
26775;BME280;14362;51.902;7.626;2023-01-15T02:52:56;99230.28;;;6.33;100.00
26775;BME280;14362;51.902;7.626;2023-01-15T02:57:00;99221.50;;;6.40;100.00
26775;BME280;14362;51.902;7.626;2023-01-15T03:01:08;99225.41;;;6.39;100.00
26775;BME280;14362;51.902;7.626;2023-01-15T03:05:16;99217.44;;;6.37;100.00
26775;BME280;14362;51.902;7.626;2023-01-15T03:09:19;99202.78;;;6.37;100.00
26775;BME280;14362;51.902;7.626;2023-01-15T03:13:26;99217.28;;;6.34;100.00
26775;BME280;14362;51.902;7.626;2023-01-15T03:17:35;99227.84;;;6.40;100.00
26775;BME280;14362;51.902;7.626;2023-01-15T03:21:47;99210.88;;;6.42;100.00
26775;BME280;14362;51.902;7.626;2023-01-15T03:25:50;99214.34;;;6.39;100.00
26775;BME280;14362;51.902;7.626;2023-01-15T03:29:54;99202.13;;;6.40;100.00
26775;BME280;14362;51.902;7.626;2023-01-15T03:33:57;99184.38;;;6.41;100.00
26775;BME280;14362;51.902;7.626;2023-01-15T03:37:58;99180.31;;;6.38;100.00
26775;BME280;14362;51.902;7.626;2023-01-15T03:42:09;99180.66;;;6.37;100.00
26775;BME280;14362;51.902;7.626;2023-01-15T03:46:22;99190.56;;;6.38;100.00
26775;BME280;14362;51.902;7.626;2023-01-15T03:50:32;99181.63;;;6.41;100.00
26775;BME280;14362;51.902;7.626;2023-01-15T03:54:44;99186.81;;;6.42;100.00
26775;BME280;14362;51.902;7.626;2023-01-15T03:58:52;99184.84;;;6.43;100.00
26775;BME280;14362;51.902;7.626;2023-01-15T04:02:57;99191.19;;;6.43;100.00
26775;BME280;14362;51.902;7.626;2023-01-15T04:07:02;99184.38;;;6.41;100.00
26775;BME280;14362;51.902;7.626;2023-01-15T04:11:03;99180.91;;;6.44;100.00
26775;BME280;14362;51.902;7.626;2023-01-15T04:15:06;99192.00;;;6.44;100.00
26775;BME280;14362;51.902;7.626;2023-01-15T04:19:08;99185.66;;;6.43;100.00
26775;BME280;14362;51.902;7.626;2023-01-15T04:23:11;99182.06;;;6.43;100.00
26775;BME280;14362;51.902;7.626;2023-01-15T04:27:12;99186.66;;;6.39;100.00
26775;BME280;14362;51.902;7.626;2023-01-15T04:31:13;99190.72;;;6.41;100.00
26775;BME280;14362;51.902;7.626;2023-01-15T04:35:16;99187.59;;;6.43;100.00
26775;BME280;14362;51.902;7.626;2023-01-15T04:39:19;99177.69;;;6.42;100.00
26775;BME280;14362;51.902;7.626;2023-01-15T04:43:20;99203.88;;;6.44;100.00
26775;BME280;14362;51.902;7.626;2023-01-15T04:47:39;99189.91;;;6.41;100.00
26775;BME280;14362;51.902;7.626;2023-01-15T04:51:41;99208.47;;;6.40;100.00
26775;BME280;14362;51.902;7.626;2023-01-15T04:55:44;99205.34;;;6.42;100.00
26775;BME280;14362;51.902;7.626;2023-01-15T04:59:45;99197.25;;;6.37;100.00
26775;BME280;14362;51.902;7.626;2023-01-15T05:03:46;99206.03;;;6.39;100.00
26775;BME280;14362;51.902;7.626;2023-01-15T05:07:48;99196.13;;;6.38;100.00
26775;BME280;14362;51.902;7.626;2023-01-15T05:11:50;99191.38;;;6.38;100.00
26775;BME280;14362;51.902;7.626;2023-01-15T05:15:52;99189.09;;;6.40;100.00
26775;BME280;14362;51.902;7.626;2023-01-15T05:19:53;99183.44;;;6.37;100.00
26775;BME280;14362;51.902;7.626;2023-01-15T05:23:55;99189.91;;;6.41;100.00
26775;BME280;14362;51.902;7.626;2023-01-15T05:27:58;99193.00;;;6.39;100.00
26775;BME280;14362;51.902;7.626;2023-01-15T05:31:59;99193.00;;;6.39;100.00
26775;BME280;14362;51.902;7.626;2023-01-15T05:36:02;99194.97;;;6.39;100.00
26775;BME280;14362;51.902;7.626;2023-01-15T05:40:05;99199.00;;;6.41;100.00
26775;BME280;14362;51.902;7.626;2023-01-15T05:44:10;99200.34;;;6.35;100.00
26775;BME280;14362;51.902;7.626;2023-01-15T05:48:11;99199.69;;;6.38;100.00
26775;BME280;14362;51.902;7.626;2023-01-15T05:52:13;99201.16;;;6.36;100.00
26775;BME280;14362;51.902;7.626;2023-01-15T05:56:14;99204.06;;;6.39;100.00
26775;BME280;14362;51.902;7.626;2023-01-15T06:00:18;99208.13;;;6.42;100.00
26775;BME280;14362;51.902;7.626;2023-01-15T06:04:20;99197.75;;;6.39;100.00
26775;BME280;14362;51.902;7.626;2023-01-15T06:08:22;99203.28;;;6.39;100.00
26775;BME280;14362;51.902;7.626;2023-01-15T06:12:24;99192.19;;;6.39;100.00
26775;BME280;14362;51.902;7.626;2023-01-15T06:16:26;99198.41;;;6.36;100.00
26775;BME280;14362;51.902;7.626;2023-01-15T06:20:28;99207.19;;;6.38;100.00
26775;BME280;14362;51.902;7.626;2023-01-15T06:24:29;99205.34;;;6.42;100.00
26775;BME280;14362;51.902;7.626;2023-01-15T06:28:31;99207.97;;;6.38;100.00
26775;BME280;14362;51.902;7.626;2023-01-15T06:32:33;99188.28;;;6.40;100.00
26775;BME280;14362;51.902;7.626;2023-01-15T06:36:35;99204.56;;;6.41;100.00
26775;BME280;14362;51.902;7.626;2023-01-15T06:40:37;99204.19;;;6.43;100.00
26775;BME280;14362;51.902;7.626;2023-01-15T06:44:38;99211.53;;;6.47;100.00
26775;BME280;14362;51.902;7.626;2023-01-15T06:48:59;99210.38;;;6.48;100.00
26775;BME280;14362;51.902;7.626;2023-01-15T06:53:00;99221.41;;;6.57;100.00
26775;BME280;14362;51.902;7.626;2023-01-15T06:57:02;99225.97;;;6.53;100.00
26775;BME280;14362;51.902;7.626;2023-01-15T07:01:07;99220.75;;;6.51;100.00
26775;BME280;14362;51.902;7.626;2023-01-15T07:05:10;99225.97;;;6.53;100.00
26775;BME280;14362;51.902;7.626;2023-01-15T07:09:12;99218.81;;;6.52;100.00
26775;BME280;14362;51.902;7.626;2023-01-15T07:13:13;99220.91;;;6.55;100.00
26775;BME280;14362;51.902;7.626;2023-01-15T07:17:15;99220.75;;;6.51;100.00
26775;BME280;14362;51.902;7.626;2023-01-15T07:21:17;99219.28;;;6.54;100.00
26775;BME280;14362;51.902;7.626;2023-01-15T07:25:19;99208.72;;;6.56;100.00
26775;BME280;14362;51.902;7.626;2023-01-15T07:29:20;99199.56;;;6.55;100.00
26775;BME280;14362;51.902;7.626;2023-01-15T07:33:22;99196.69;;;6.52;100.00
26775;BME280;14362;51.902;7.626;2023-01-15T07:37:25;99205.09;;;6.55;100.00
26775;BME280;14362;51.902;7.626;2023-01-15T07:41:27;99198.16;;;6.49;100.00
26775;BME280;14362;51.902;7.626;2023-01-15T07:45:47;99212.00;;;6.49;100.00
26775;BME280;14362;51.902;7.626;2023-01-15T07:50:08;99201.59;;;6.46;100.00
26775;BME280;14362;51.902;7.626;2023-01-15T07:54:11;99213.63;;;6.50;100.00
26775;BME280;14362;51.902;7.626;2023-01-15T07:58:12;99210.69;;;6.47;100.00
26775;BME280;14362;51.902;7.626;2023-01-15T08:02:13;99214.97;;;6.44;100.00
26775;BME280;14362;51.902;7.626;2023-01-15T08:06:15;99226.63;;;6.50;100.00
26775;BME280;14362;51.902;7.626;2023-01-15T08:10:18;99244.25;;;6.45;100.00
26775;BME280;14362;51.902;7.626;2023-01-15T08:14:20;99243.44;;;6.45;100.00
26775;BME280;14362;51.902;7.626;2023-01-15T08:18:38;99237.34;;;6.51;100.00
26775;BME280;14362;51.902;7.626;2023-01-15T08:22:40;99240.34;;;6.46;100.00
26775;BME280;14362;51.902;7.626;2023-01-15T08:26:43;99250.94;;;6.44;100.00
26775;BME280;14362;51.902;7.626;2023-01-15T08:30:44;99249.16;;;6.40;100.00
26775;BME280;14362;51.902;7.626;2023-01-15T08:34:45;99255.84;;;6.39;100.00
26775;BME280;14362;51.902;7.626;2023-01-15T08:38:47;99270.81;;;6.38;100.00
26775;BME280;14362;51.902;7.626;2023-01-15T08:42:50;99254.69;;;6.40;100.00
26775;BME280;14362;51.902;7.626;2023-01-15T08:46:52;99249.47;;;6.38;100.00
26775;BME280;14362;51.902;7.626;2023-01-15T08:50:53;99262.53;;;6.38;100.00
26775;BME280;14362;51.902;7.626;2023-01-15T08:54:55;99252.59;;;6.37;100.00
26775;BME280;14362;51.902;7.626;2023-01-15T08:58:57;99260.69;;;6.42;100.00
26775;BME280;14362;51.902;7.626;2023-01-15T09:02:59;99265.91;;;6.43;100.00
26775;BME280;14362;51.902;7.626;2023-01-15T09:07:00;99256.78;;;6.43;100.00
26775;BME280;14362;51.902;7.626;2023-01-15T09:11:04;99258.72;;;6.51;100.00
26775;BME280;14362;51.902;7.626;2023-01-15T09:15:08;99253.03;;;6.47;100.00
26775;BME280;14362;51.902;7.626;2023-01-15T09:19:10;99275.19;;;6.47;100.00
26775;BME280;14362;51.902;7.626;2023-01-15T09:23:11;99263.09;;;6.52;100.00
26775;BME280;14362;51.902;7.626;2023-01-15T09:27:13;99264.38;;;6.54;100.00
26775;BME280;14362;51.902;7.626;2023-01-15T09:31:15;99256.84;;;6.63;100.00
26775;BME280;14362;51.902;7.626;2023-01-15T09:35:17;99261.31;;;6.76;100.00
26775;BME280;14362;51.902;7.626;2023-01-15T09:39:18;99267.59;;;6.94;100.00
26775;BME280;14362;51.902;7.626;2023-01-15T09:43:28;99272.53;;;7.08;100.00
26775;BME280;14362;51.902;7.626;2023-01-15T09:47:38;99281.78;;;7.12;100.00
26775;BME280;14362;51.902;7.626;2023-01-15T09:51:48;99267.13;;;7.12;100.00
26775;BME280;14362;51.902;7.626;2023-01-15T09:55:53;99261.31;;;7.05;100.00
26775;BME280;14362;51.902;7.626;2023-01-15T09:59:55;99272.53;;;7.08;100.00
26775;BME280;14362;51.902;7.626;2023-01-15T10:04:05;99256.50;;;6.94;100.00
26775;BME280;14362;51.902;7.626;2023-01-15T10:08:15;99276.84;;;6.98;100.00
26775;BME280;14362;51.902;7.626;2023-01-15T10:12:23;99267.38;;;6.99;98.02
26775;BME280;14362;51.902;7.626;2023-01-15T10:16:35;99279.75;;;7.01;97.77
26775;BME280;14362;51.902;7.626;2023-01-15T10:20:48;99283.78;;;7.04;99.37
26775;BME280;14362;51.902;7.626;2023-01-15T10:24:55;99280.53;;;7.02;100.00
26775;BME280;14362;51.902;7.626;2023-01-15T10:28:59;99281.19;;;7.07;99.37
26775;BME280;14362;51.902;7.626;2023-01-15T10:33:10;99285.72;;;7.11;99.36
26775;BME280;14362;51.902;7.626;2023-01-15T10:37:18;99278.41;;;7.07;96.23
26775;BME280;14362;51.902;7.626;2023-01-15T10:41:40;99287.59;;;7.19;97.89
26775;BME280;14362;51.902;7.626;2023-01-15T10:45:47;99270.97;;;7.19;97.79
26775;BME280;14362;51.902;7.626;2023-01-15T10:49:50;99269.97;;;7.24;95.81
26775;BME280;14362;51.902;7.626;2023-01-15T10:53:56;99279.75;;;7.21;96.92
26775;BME280;14362;51.902;7.626;2023-01-15T10:58:02;99276.44;;;7.28;97.18
26775;BME280;14362;51.902;7.626;2023-01-15T11:02:20;99283.13;;;7.27;97.11
26775;BME280;14362;51.902;7.626;2023-01-15T11:06:23;99274.31;;;7.33;96.09
26775;BME280;14362;51.902;7.626;2023-01-15T11:10:26;99263.88;;;7.30;95.40
26775;BME280;14362;51.902;7.626;2023-01-15T11:14:32;99272.31;;;7.34;95.59
26775;BME280;14362;51.902;7.626;2023-01-15T11:18:52;99272.94;;;7.39;94.16
26775;BME280;14362;51.902;7.626;2023-01-15T11:23:15;99275.97;;;7.46;92.64
26775;BME280;14362;51.902;7.626;2023-01-15T11:27:20;99281.03;;;7.44;93.14
26775;BME280;14362;51.902;7.626;2023-01-15T11:31:34;99276.66;;;7.43;94.63
26775;BME280;14362;51.902;7.626;2023-01-15T11:35:36;99274.22;;;7.42;94.26
26775;BME280;14362;51.902;7.626;2023-01-15T11:39:38;99280.91;;;7.41;92.90
26775;BME280;14362;51.902;7.626;2023-01-15T11:43:40;99272.06;;;7.47;92.93
26775;BME280;14362;51.902;7.626;2023-01-15T11:48:00;99260.38;;;7.42;93.14
26775;BME280;14362;51.902;7.626;2023-01-15T11:52:21;99255.47;;;7.59;91.90
26775;BME280;14362;51.902;7.626;2023-01-15T11:56:26;99243.69;;;7.62;90.41
26775;BME280;14362;51.902;7.626;2023-01-15T12:00:32;99247.50;;;7.58;90.87
26775;BME280;14362;51.902;7.626;2023-01-15T12:04:37;99246.06;;;7.72;90.79
26775;BME280;14362;51.902;7.626;2023-01-15T12:08:45;99264.75;;;7.75;89.78
26775;BME280;14362;51.902;7.626;2023-01-15T12:12:56;99263.78;;;7.59;91.05
26775;BME280;14362;51.902;7.626;2023-01-15T12:17:10;99259.84;;;7.60;90.48
26775;BME280;14362;51.902;7.626;2023-01-15T12:25:48;99244.72;;;7.58;91.46
26775;BME280;14362;51.902;7.626;2023-01-15T12:29:57;99238.03;;;7.59;91.26
26775;BME280;14362;51.902;7.626;2023-01-15T12:34:06;99241.47;;;7.56;89.38
26775;BME280;14362;51.902;7.626;2023-01-15T12:38:14;99239.13;;;7.46;89.70
26775;BME280;14362;51.902;7.626;2023-01-15T12:42:19;99238.13;;;7.50;90.34
26775;BME280;14362;51.902;7.626;2023-01-15T12:46:41;99238.59;;;7.52;91.02
26775;BME280;14362;51.902;7.626;2023-01-15T12:50:47;99230.75;;;7.54;90.21
26775;BME280;14362;51.902;7.626;2023-01-15T12:54:53;99213.50;;;7.49;91.19
26775;BME280;14362;51.902;7.626;2023-01-15T12:59:03;99229.22;;;7.45;91.93
26775;BME280;14362;51.902;7.626;2023-01-15T13:03:18;99225.41;;;7.49;90.97
26775;BME280;14362;51.902;7.626;2023-01-15T13:07:28;99218.56;;;7.47;92.04
26775;BME280;14362;51.902;7.626;2023-01-15T13:11:34;99237.75;;;7.52;91.22
26775;BME280;14362;51.902;7.626;2023-01-15T13:15:39;99200.00;;;7.59;92.69
26775;BME280;14362;51.902;7.626;2023-01-15T13:19:51;99211.50;;;7.70;92.48
26775;BME280;14362;51.902;7.626;2023-01-15T13:24:07;99231.78;;;7.94;90.47
26775;BME280;14362;51.902;7.626;2023-01-15T13:28:21;99210.09;;;8.08;89.14
26775;BME280;14362;51.902;7.626;2023-01-15T13:32:27;99218.41;;;8.08;87.68
26775;BME280;14362;51.902;7.626;2023-01-15T13:36:33;99224.97;;;7.92;88.81
26775;BME280;14362;51.902;7.626;2023-01-15T13:40:42;99235.34;;;7.83;88.99
26775;BME280;14362;51.902;7.626;2023-01-15T13:44:50;99224.59;;;7.81;89.33
26775;BME280;14362;51.902;7.626;2023-01-15T13:49:00;99230.56;;;7.71;90.81
26775;BME280;14362;51.902;7.626;2023-01-15T13:53:07;99233.00;;;7.73;90.92
26775;BME280;14362;51.902;7.626;2023-01-15T13:57:22;99228.88;;;7.58;92.07
26775;BME280;14362;51.902;7.626;2023-01-15T14:01:30;99243.22;;;7.60;92.44
26775;BME280;14362;51.902;7.626;2023-01-15T14:05:34;99221.31;;;7.67;92.62
26775;BME280;14362;51.902;7.626;2023-01-15T14:09:36;99242.59;;;7.75;90.79
26775;BME280;14362;51.902;7.626;2023-01-15T14:14:08;99236.59;;;7.73;90.58
26775;BME280;14362;51.902;7.626;2023-01-15T14:18:25;99233.34;;;7.71;91.61
26775;BME280;14362;51.902;7.626;2023-01-15T14:22:53;99252.84;;;7.63;91.52
26775;BME280;14362;51.902;7.626;2023-01-15T14:27:02;99258.34;;;7.83;89.84
26775;BME280;14362;51.902;7.626;2023-01-15T14:31:41;99260.03;;;7.76;90.42
26775;BME280;14362;51.902;7.626;2023-01-15T14:35:47;99263.50;;;7.73;91.31
26775;BME280;14362;51.902;7.626;2023-01-15T14:39:52;99263.66;;;7.56;92.35
26775;BME280;14362;51.902;7.626;2023-01-15T14:43:56;99291.78;;;7.46;94.41
26775;BME280;14362;51.902;7.626;2023-01-15T14:48:01;99276.31;;;7.45;93.46
26775;BME280;14362;51.902;7.626;2023-01-15T14:52:03;99288.75;;;7.39;93.80
26775;BME280;14362;51.902;7.626;2023-01-15T14:56:14;99294.84;;;7.32;97.02
26775;BME280;14362;51.902;7.626;2023-01-15T15:00:18;99295.66;;;7.33;95.75
26775;BME280;14362;51.902;7.626;2023-01-15T15:04:24;99285.09;;;7.26;95.51
26775;BME280;14362;51.902;7.626;2023-01-15T15:08:32;99293.41;;;7.26;94.95
26775;BME280;14362;51.902;7.626;2023-01-15T15:12:39;99295.53;;;7.29;92.66
26775;BME280;14362;51.902;7.626;2023-01-15T15:16:45;99303.75;;;7.38;92.75
26775;BME280;14362;51.902;7.626;2023-01-15T15:20:52;99297.16;;;7.30;93.87
26775;BME280;14362;51.902;7.626;2023-01-15T15:24:56;99292.75;;;7.29;95.39
26775;BME280;14362;51.902;7.626;2023-01-15T15:29:00;99300.59;;;7.27;94.35
26775;BME280;14362;51.902;7.626;2023-01-15T15:33:03;99290.78;;;7.30;94.14
26775;BME280;14362;51.902;7.626;2023-01-15T15:37:19;99319.31;;;7.30;95.55
26775;BME280;14362;51.902;7.626;2023-01-15T15:41:23;99309.09;;;7.22;95.75
26775;BME280;14362;51.902;7.626;2023-01-15T15:45:50;99314.50;;;7.19;95.87
26775;BME280;14362;51.902;7.626;2023-01-15T15:50:18;99307.94;;;7.23;96.13
26775;BME280;14362;51.902;7.626;2023-01-15T15:54:20;99296.66;;;7.28;94.58
26775;BME280;14362;51.902;7.626;2023-01-15T15:58:25;99314.31;;;7.24;94.84
26775;BME280;14362;51.902;7.626;2023-01-15T16:02:31;99315.44;;;7.23;94.30
26775;BME280;14362;51.902;7.626;2023-01-15T16:06:35;99332.09;;;7.23;93.79
26775;BME280;14362;51.902;7.626;2023-01-15T16:10:37;99319.22;;;7.18;94.47
26775;BME280;14362;51.902;7.626;2023-01-15T16:14:39;99333.84;;;7.27;93.08
26775;BME280;14362;51.902;7.626;2023-01-15T16:18:43;99332.75;;;7.20;93.86
26775;BME280;14362;51.902;7.626;2023-01-15T16:22:46;99347.75;;;7.19;93.59
26775;BME280;14362;51.902;7.626;2023-01-15T16:26:55;99334.91;;;7.14;93.54
26775;BME280;14362;51.902;7.626;2023-01-15T16:30:58;99334.22;;;7.17;93.52
26775;BME280;14362;51.902;7.626;2023-01-15T16:35:06;99345.34;;;7.09;94.73
26775;BME280;14362;51.902;7.626;2023-01-15T16:39:16;99338.34;;;7.11;94.21
26775;BME280;14362;51.902;7.626;2023-01-15T16:43:22;99342.13;;;7.07;95.14
26775;BME280;14362;51.902;7.626;2023-01-15T16:47:25;99367.84;;;7.07;94.44
26775;BME280;14362;51.902;7.626;2023-01-15T16:51:31;99362.66;;;7.06;95.50
26775;BME280;14362;51.902;7.626;2023-01-15T16:55:41;99371.59;;;7.11;94.79
26775;BME280;14362;51.902;7.626;2023-01-15T17:00:06;99369.84;;;7.07;94.64
26775;BME280;14362;51.902;7.626;2023-01-15T17:04:17;99375.16;;;7.12;93.72
26775;BME280;14362;51.902;7.626;2023-01-15T17:08:23;99381.03;;;7.10;94.98
26775;BME280;14362;51.902;7.626;2023-01-15T17:12:28;99385.44;;;7.11;94.31
26775;BME280;14362;51.902;7.626;2023-01-15T17:16:30;99374.88;;;7.05;95.10
26775;BME280;14362;51.902;7.626;2023-01-15T17:20:32;99380.22;;;7.10;95.99
26775;BME280;14362;51.902;7.626;2023-01-15T17:24:36;99375.38;;;7.07;96.77
26775;BME280;14362;51.902;7.626;2023-01-15T17:28:37;99383.88;;;7.02;97.08
26775;BME280;14362;51.902;7.626;2023-01-15T17:32:39;99394.78;;;6.99;97.80
26775;BME280;14362;51.902;7.626;2023-01-15T17:36:41;99388.91;;;7.00;97.95
26775;BME280;14362;51.902;7.626;2023-01-15T17:40:44;99387.97;;;6.96;98.31
26775;BME280;14362;51.902;7.626;2023-01-15T17:44:46;99388.47;;;6.90;99.35
26775;BME280;14362;51.902;7.626;2023-01-15T17:48:47;99403.81;;;6.87;99.37
26775;BME280;14362;51.902;7.626;2023-01-15T17:52:49;99410.81;;;6.85;99.62
26775;BME280;14362;51.902;7.626;2023-01-15T17:56:52;99399.44;;;6.78;100.00
26775;BME280;14362;51.902;7.626;2023-01-15T18:01:15;99396.34;;;6.79;100.00
26775;BME280;14362;51.902;7.626;2023-01-15T18:05:35;99407.28;;;6.76;100.00
26775;BME280;14362;51.902;7.626;2023-01-15T18:09:36;99398.63;;;6.77;100.00
26775;BME280;14362;51.902;7.626;2023-01-15T18:13:40;99404.69;;;6.71;100.00
26775;BME280;14362;51.902;7.626;2023-01-15T18:17:41;99392.31;;;6.68;100.00
26775;BME280;14362;51.902;7.626;2023-01-15T18:21:43;99389.56;;;6.68;100.00
26775;BME280;14362;51.902;7.626;2023-01-15T18:25:44;99393.13;;;6.69;100.00
26775;BME280;14362;51.902;7.626;2023-01-15T18:29:48;99404.19;;;6.69;100.00
26775;BME280;14362;51.902;7.626;2023-01-15T18:33:49;99400.13;;;6.75;100.00
26775;BME280;14362;51.902;7.626;2023-01-15T18:37:51;99413.78;;;6.71;99.47
26775;BME280;14362;51.902;7.626;2023-01-15T18:41:52;99401.09;;;6.70;98.73
26775;BME280;14362;51.902;7.626;2023-01-15T18:46:12;99401.44;;;6.69;98.71
26775;BME280;14362;51.902;7.626;2023-01-15T18:50:28;99403.38;;;6.77;99.35
26775;BME280;14362;51.902;7.626;2023-01-15T18:54:29;99408.75;;;6.65;100.00
26775;BME280;14362;51.902;7.626;2023-01-15T18:58:31;99407.47;;;6.62;100.00
26775;BME280;14362;51.902;7.626;2023-01-15T19:02:34;99418.22;;;6.64;99.85
26775;BME280;14362;51.902;7.626;2023-01-15T19:06:36;99424.88;;;6.63;100.00
26775;BME280;14362;51.902;7.626;2023-01-15T19:10:37;99409.75;;;6.60;99.59
26775;BME280;14362;51.902;7.626;2023-01-15T19:14:39;99426.50;;;6.64;99.33
26775;BME280;14362;51.902;7.626;2023-01-15T19:18:59;99436.16;;;6.58;100.00
26775;BME280;14362;51.902;7.626;2023-01-15T19:23:01;99436.16;;;6.58;99.10
26775;BME280;14362;51.902;7.626;2023-01-15T19:27:04;99430.44;;;6.54;100.00
26775;BME280;14362;51.902;7.626;2023-01-15T19:31:07;99441.03;;;6.52;100.00
26775;BME280;14362;51.902;7.626;2023-01-15T19:35:28;99418.09;;;6.52;100.00
26775;BME280;14362;51.902;7.626;2023-01-15T19:39:29;99438.44;;;6.56;100.00
26775;BME280;14362;51.902;7.626;2023-01-15T19:43:31;99430.78;;;6.53;100.00
26775;BME280;14362;51.902;7.626;2023-01-15T19:47:50;99426.06;;;6.53;100.00
26775;BME280;14362;51.902;7.626;2023-01-15T19:52:10;99427.03;;;6.57;100.00
26775;BME280;14362;51.902;7.626;2023-01-15T19:56:29;99429.28;;;6.64;100.00
26775;BME280;14362;51.902;7.626;2023-01-15T20:00:32;99426.69;;;6.67;100.00
26775;BME280;14362;51.902;7.626;2023-01-15T20:04:34;99423.56;;;6.69;100.00
26775;BME280;14362;51.902;7.626;2023-01-15T20:08:37;99416.09;;;6.69;100.00
26775;BME280;14362;51.902;7.626;2023-01-15T20:12:39;99413.66;;;6.68;100.00
26775;BME280;14362;51.902;7.626;2023-01-15T20:16:58;99402.09;;;6.66;100.00
26775;BME280;14362;51.902;7.626;2023-01-15T20:20:59;99398.53;;;6.65;100.00
26775;BME280;14362;51.902;7.626;2023-01-15T20:25:03;99402.56;;;6.68;100.00
26775;BME280;14362;51.902;7.626;2023-01-15T20:29:04;99398.66;;;6.69;100.00
26775;BME280;14362;51.902;7.626;2023-01-15T20:33:06;99399.50;;;6.69;100.00
26775;BME280;14362;51.902;7.626;2023-01-15T20:37:08;99392.31;;;6.68;100.00
26775;BME280;14362;51.902;7.626;2023-01-15T20:41:10;99385.47;;;6.66;100.00
26775;BME280;14362;51.902;7.626;2023-01-15T20:45:30;99381.06;;;6.65;100.00
26775;BME280;14362;51.902;7.626;2023-01-15T20:49:31;99382.22;;;6.64;100.00
26775;BME280;14362;51.902;7.626;2023-01-15T20:53:34;99371.81;;;6.61;100.00
26775;BME280;14362;51.902;7.626;2023-01-15T20:57:38;99358.31;;;6.59;100.00
26775;BME280;14362;51.902;7.626;2023-01-15T21:01:40;99362.22;;;6.58;100.00
26775;BME280;14362;51.902;7.626;2023-01-15T21:05:41;99357.03;;;6.57;100.00
26775;BME280;14362;51.902;7.626;2023-01-15T21:09:43;99354.56;;;6.55;100.00
26775;BME280;14362;51.902;7.626;2023-01-15T21:13:45;99350.53;;;6.53;100.00
26775;BME280;14362;51.902;7.626;2023-01-15T21:17:47;99348.41;;;6.50;100.00
26775;BME280;14362;51.902;7.626;2023-01-15T21:21:48;99343.38;;;6.52;100.00
26775;BME280;14362;51.902;7.626;2023-01-15T21:25:50;99335.84;;;6.52;100.00
26775;BME280;14362;51.902;7.626;2023-01-15T21:29:53;99328.06;;;6.46;100.00
26775;BME280;14362;51.902;7.626;2023-01-15T21:33:55;99326.44;;;6.45;100.00
26775;BME280;14362;51.902;7.626;2023-01-15T21:37:57;99317.66;;;6.43;100.00
26775;BME280;14362;51.902;7.626;2023-01-15T21:41:59;99313.63;;;6.40;100.00
26775;BME280;14362;51.902;7.626;2023-01-15T21:46:19;99298.16;;;6.39;100.00
26775;BME280;14362;51.902;7.626;2023-01-15T21:50:22;99292.00;;;6.34;100.00
26775;BME280;14362;51.902;7.626;2023-01-15T21:54:23;99292.97;;;6.38;100.00